createdAt,value
2018-08-22T00:00:50.539Z,19.50
2018-08-22T00:03:17.912Z,19.40
2018-08-22T00:05:45.258Z,19.30
2018-08-22T00:08:12.636Z,19.40
2018-08-22T00:10:39.994Z,19.40
2018-08-22T00:13:07.341Z,19.30
2018-08-22T00:15:34.684Z,19.20
2018-08-22T00:18:01.998Z,19.20
2018-08-22T00:20:29.413Z,19.30
2018-08-22T00:22:56.747Z,19.20
2018-08-22T00:25:24.137Z,19.20
2018-08-22T00:27:51.458Z,19.10
2018-08-22T00:30:18.846Z,18.90
2018-08-22T00:32:46.258Z,18.80
2018-08-22T00:35:13.636Z,18.80
2018-08-22T00:37:40.971Z,18.80
2018-08-22T00:40:08.323Z,18.70
2018-08-22T00:42:35.654Z,18.60
2018-08-22T00:45:03.041Z,18.50
2018-08-22T00:47:30.366Z,18.50
2018-08-22T00:49:57.688Z,18.40
2018-08-22T00:52:25.048Z,18.30
2018-08-22T00:54:52.367Z,18.40
2018-08-22T00:57:19.731Z,18.30
2018-08-22T00:59:47.099Z,18.40
2018-08-22T01:02:14.451Z,18.40
2018-08-22T01:04:41.794Z,18.50
2018-08-22T01:07:09.136Z,18.50
2018-08-22T01:09:36.467Z,18.50
2018-08-22T01:12:03.843Z,18.60
2018-08-22T01:14:31.233Z,18.70
2018-08-22T01:16:58.704Z,18.70
2018-08-22T01:19:26.030Z,18.70
2018-08-22T01:21:53.398Z,18.70
2018-08-22T01:24:20.766Z,18.60
2018-08-22T01:26:48.110Z,18.60
2018-08-22T01:29:15.471Z,18.70
2018-08-22T01:31:42.798Z,18.50
2018-08-22T01:34:10.179Z,18.50
2018-08-22T01:36:37.502Z,18.50
2018-08-22T01:39:06.426Z,18.50
2018-08-22T01:41:34.035Z,18.30
2018-08-22T01:44:01.379Z,18.20
2018-08-22T01:46:28.706Z,18.20
2018-08-22T01:48:56.067Z,18.10
2018-08-22T01:51:23.407Z,18.00
2018-08-22T01:53:50.747Z,18.00
2018-08-22T01:56:18.117Z,18.00
2018-08-22T01:58:45.473Z,18.00
2018-08-22T02:01:12.802Z,18.00
2018-08-22T02:03:40.138Z,18.10
2018-08-22T02:06:07.510Z,18.10
2018-08-22T02:08:34.892Z,18.20
2018-08-22T02:11:02.231Z,18.10
2018-08-22T02:13:29.592Z,18.10
2018-08-22T02:15:56.977Z,18.20
2018-08-22T02:18:24.317Z,18.10
2018-08-22T02:20:51.690Z,18.20
2018-08-22T02:23:19.050Z,18.20
2018-08-22T02:25:46.416Z,18.20
2018-08-22T02:28:13.778Z,18.20
2018-08-22T02:30:41.144Z,18.20
2018-08-22T02:33:08.488Z,18.30
2018-08-22T02:35:35.858Z,18.40
2018-08-22T02:38:03.283Z,18.50
2018-08-22T02:40:31.316Z,18.50
2018-08-22T02:42:58.654Z,18.50
2018-08-22T02:45:25.995Z,18.50
2018-08-22T02:47:53.362Z,18.50
2018-08-22T02:50:20.686Z,18.50
2018-08-22T02:52:48.040Z,18.60
2018-08-22T02:55:15.393Z,18.60
2018-08-22T02:57:42.717Z,18.60
2018-08-22T03:00:10.071Z,18.80
2018-08-22T03:02:37.419Z,18.90
2018-08-22T03:05:04.789Z,19.00
2018-08-22T03:07:32.124Z,19.00
2018-08-22T03:09:59.485Z,18.90
2018-08-22T03:12:26.808Z,18.80
2018-08-22T03:14:54.147Z,19.00
2018-08-22T03:17:21.492Z,18.80
2018-08-22T03:19:48.831Z,18.60
2018-08-22T03:22:16.288Z,18.50
2018-08-22T03:24:43.708Z,18.50
2018-08-22T03:27:11.058Z,18.70
2018-08-22T03:29:38.524Z,18.80
2018-08-22T03:32:05.906Z,18.60
2018-08-22T03:34:33.244Z,18.70
2018-08-22T03:37:00.617Z,19.00
2018-08-22T03:39:27.975Z,18.70
2018-08-22T03:41:55.319Z,18.50
2018-08-22T03:44:22.659Z,18.60
2018-08-22T03:46:50.017Z,18.80
2018-08-22T03:49:17.408Z,18.60
2018-08-22T03:51:44.764Z,18.50
2018-08-22T03:54:12.128Z,18.30
2018-08-22T03:56:39.464Z,18.30
2018-08-22T03:59:06.791Z,18.80
2018-08-22T04:01:34.149Z,18.90
2018-08-22T04:04:01.520Z,18.90
2018-08-22T04:06:28.873Z,18.60
2018-08-22T04:08:56.243Z,18.50
2018-08-22T04:11:23.602Z,19.80
2018-08-22T04:13:51.969Z,19.90
2018-08-22T04:16:19.304Z,18.90
2018-08-22T04:18:46.659Z,19.30
2018-08-22T04:21:14.017Z,18.70
2018-08-22T04:23:41.357Z,18.40
2018-08-22T04:26:08.728Z,18.40
2018-08-22T04:28:36.100Z,18.20
2018-08-22T04:31:03.465Z,18.50
2018-08-22T04:33:30.830Z,18.20
2018-08-22T04:35:58.166Z,18.00
2018-08-22T04:38:25.636Z,17.90
2018-08-22T04:40:53.023Z,18.10
2018-08-22T04:43:20.367Z,18.00
2018-08-22T04:45:47.736Z,17.90
2018-08-22T04:48:15.169Z,17.90
2018-08-22T04:50:42.467Z,17.90
2018-08-22T04:53:09.862Z,17.80
2018-08-22T04:55:37.261Z,17.70
2018-08-22T04:58:04.640Z,17.60
2018-08-22T05:00:31.967Z,17.60
2018-08-22T05:02:59.322Z,17.60
2018-08-22T05:05:26.702Z,17.60
2018-08-22T05:07:54.070Z,17.70
2018-08-22T05:10:21.428Z,17.70
2018-08-22T05:12:48.817Z,17.80
2018-08-22T05:15:16.180Z,17.90
2018-08-22T05:17:43.557Z,18.00
2018-08-22T05:20:10.887Z,18.10
2018-08-22T05:22:38.264Z,18.40
2018-08-22T05:25:05.639Z,18.60
2018-08-22T05:27:33.022Z,18.60
2018-08-22T05:30:00.399Z,18.70
2018-08-22T05:32:27.748Z,18.90
2018-08-22T05:34:55.105Z,19.20
2018-08-22T05:37:22.588Z,19.40
2018-08-22T05:39:49.969Z,19.50
2018-08-22T05:42:17.367Z,20.10
2018-08-22T05:44:44.715Z,20.30
2018-08-22T05:47:12.082Z,20.60
2018-08-22T05:49:39.442Z,22.10
2018-08-22T05:52:06.804Z,23.30
2018-08-22T05:54:34.170Z,23.80
2018-08-22T05:57:02.472Z,23.90
2018-08-22T05:59:29.823Z,24.50
2018-08-22T06:01:57.166Z,24.40
2018-08-22T06:04:24.519Z,24.90
2018-08-22T06:06:52.045Z,25.00
2018-08-22T06:09:19.489Z,25.30
2018-08-22T06:11:46.853Z,25.40
2018-08-22T06:14:14.216Z,25.40
2018-08-22T06:16:41.572Z,24.60
2018-08-22T06:19:09.041Z,24.20
2018-08-22T06:21:36.408Z,23.70
2018-08-22T06:24:03.790Z,22.90
2018-08-22T06:26:31.155Z,22.50
2018-08-22T06:28:58.519Z,22.40
2018-08-22T06:31:25.903Z,23.70
2018-08-22T06:33:53.454Z,24.40
2018-08-22T06:36:20.818Z,24.70
2018-08-22T06:38:48.195Z,24.80
2018-08-22T06:41:15.543Z,24.70
2018-08-22T06:43:42.904Z,24.50
2018-08-22T06:46:10.288Z,24.10
2018-08-22T06:48:37.673Z,24.30
2018-08-22T06:51:05.024Z,25.10
2018-08-22T06:53:32.372Z,24.90
2018-08-22T06:56:00.977Z,24.90
2018-08-22T06:58:28.329Z,25.20
2018-08-22T07:00:55.680Z,25.20
2018-08-22T07:03:23.076Z,24.70
2018-08-22T07:05:50.515Z,24.90
2018-08-22T07:08:17.849Z,25.10
2018-08-22T07:10:45.208Z,24.90
2018-08-22T07:13:12.569Z,25.80
2018-08-22T07:15:39.925Z,26.00
2018-08-22T07:18:07.270Z,26.00
2018-08-22T07:20:34.647Z,25.60
2018-08-22T07:23:02.007Z,25.90
2018-08-22T07:25:29.361Z,25.90
2018-08-22T07:27:56.706Z,25.40
2018-08-22T07:30:24.051Z,25.60
2018-08-22T07:32:51.407Z,25.80
2018-08-22T07:35:18.756Z,26.50
2018-08-22T07:37:46.152Z,26.60
2018-08-22T07:40:13.506Z,26.90
2018-08-22T07:42:40.912Z,27.00
2018-08-22T07:45:08.280Z,27.50
2018-08-22T07:47:35.749Z,27.90
2018-08-22T07:50:03.992Z,27.80
2018-08-22T07:52:31.272Z,27.80
2018-08-22T07:54:58.685Z,27.50
2018-08-22T07:57:26.064Z,27.40
2018-08-22T07:59:53.753Z,26.90
2018-08-22T08:02:21.170Z,27.40
2018-08-22T08:04:48.551Z,26.90
2018-08-22T08:07:15.940Z,27.30
2018-08-22T08:09:43.583Z,27.40
2018-08-22T08:12:11.035Z,26.70
2018-08-22T08:14:38.404Z,26.70
2018-08-22T08:17:05.802Z,26.50
2018-08-22T08:19:33.157Z,26.70
2018-08-22T08:22:00.538Z,26.80
2018-08-22T08:24:27.923Z,26.80
2018-08-22T08:26:55.264Z,26.90
2018-08-22T08:29:22.628Z,27.00
2018-08-22T08:31:50.050Z,27.00
2018-08-22T08:34:17.394Z,27.20
2018-08-22T08:36:45.440Z,27.40
2018-08-22T08:39:12.958Z,27.10
2018-08-22T08:41:40.331Z,26.80
2018-08-22T08:44:08.475Z,26.60
2018-08-22T08:46:35.884Z,27.40
2018-08-22T08:49:03.253Z,27.50
2018-08-22T08:51:30.751Z,27.40
2018-08-22T08:53:58.638Z,27.30
2018-08-22T08:56:26.004Z,26.90
2018-08-22T08:58:54.411Z,27.20
2018-08-22T09:01:21.841Z,27.20
2018-08-22T09:03:50.282Z,26.70
2018-08-22T09:06:17.612Z,27.40
2018-08-22T09:08:44.974Z,27.00
2018-08-22T09:11:12.360Z,26.70
2018-08-22T09:13:47.182Z,26.80
2018-08-22T09:16:15.123Z,26.70
2018-08-22T09:18:42.567Z,27.00
2018-08-22T09:21:09.959Z,27.10
2018-08-22T09:23:37.335Z,26.90
2018-08-22T09:26:04.730Z,27.10
2018-08-22T09:28:32.065Z,26.70
2018-08-22T09:30:59.393Z,26.70
2018-08-22T09:33:26.764Z,26.70
2018-08-22T09:35:54.157Z,27.10
2018-08-22T09:38:21.494Z,26.90
2018-08-22T09:40:48.908Z,27.10
2018-08-22T09:43:16.322Z,26.40
2018-08-22T09:45:43.620Z,26.40
2018-08-22T09:48:10.944Z,26.40
2018-08-22T09:50:38.360Z,26.40
2018-08-22T09:53:05.749Z,26.20
2018-08-22T09:55:33.086Z,26.50
2018-08-22T09:58:00.429Z,26.40
2018-08-22T10:00:33.450Z,26.50
2018-08-22T10:03:00.795Z,26.50
2018-08-22T10:05:28.168Z,26.00
2018-08-22T10:07:55.543Z,26.30
2018-08-22T10:10:22.956Z,26.10
2018-08-22T10:12:50.323Z,26.00
2018-08-22T10:15:17.667Z,26.30
2018-08-22T10:17:45.064Z,26.20
2018-08-22T10:20:12.419Z,26.00
2018-08-22T10:22:39.777Z,26.10
2018-08-22T10:25:07.151Z,26.00
2018-08-22T10:27:34.525Z,26.20
2018-08-22T10:30:01.885Z,25.90
2018-08-22T10:32:29.241Z,26.20
2018-08-22T10:34:56.579Z,26.30
2018-08-22T10:37:23.920Z,26.50
2018-08-22T10:39:51.264Z,26.40
2018-08-22T10:42:18.618Z,26.50
2018-08-22T10:44:45.963Z,26.30
2018-08-22T10:47:13.308Z,25.90
2018-08-22T10:49:40.649Z,26.10
2018-08-22T10:52:08.009Z,26.20
2018-08-22T10:54:35.335Z,26.40
2018-08-22T10:57:02.672Z,26.30
2018-08-22T10:59:30.030Z,26.30
2018-08-22T11:01:57.398Z,26.50
2018-08-22T11:04:24.787Z,26.40
2018-08-22T11:06:52.155Z,26.70
2018-08-22T11:09:19.575Z,26.50
2018-08-22T11:11:46.932Z,26.40
2018-08-22T11:14:14.267Z,26.50
2018-08-22T11:16:41.661Z,26.50
2018-08-22T11:19:09.075Z,26.40
2018-08-22T11:21:49.207Z,26.30
2018-08-22T11:24:28.329Z,26.50
2018-08-22T11:27:07.224Z,26.30
2018-08-22T11:29:46.271Z,26.40
2018-08-22T11:32:25.317Z,26.40
2018-08-22T11:34:52.156Z,26.40
2018-08-22T11:37:19.688Z,26.30
2018-08-22T11:39:48.323Z,26.30
2018-08-22T11:42:15.772Z,26.20
2018-08-22T11:44:43.115Z,26.40
2018-08-22T11:47:10.590Z,26.40
2018-08-22T11:49:37.943Z,25.90
2018-08-22T11:52:05.298Z,26.50
2018-08-22T11:54:32.687Z,26.30
2018-08-22T11:57:00.586Z,26.00
2018-08-22T11:59:27.968Z,26.10
2018-08-22T12:01:55.384Z,26.10
2018-08-22T12:04:22.700Z,26.00
2018-08-22T12:06:50.419Z,25.80
2018-08-22T12:09:17.815Z,25.70
2018-08-22T12:11:45.182Z,26.40
2018-08-22T12:14:12.540Z,26.50
2018-08-22T12:19:07.799Z,26.50
2018-08-22T12:21:35.167Z,26.60
2018-08-22T12:24:02.956Z,26.50
2018-08-22T12:26:30.298Z,26.50
2018-08-22T12:28:57.653Z,26.40
2018-08-22T12:31:24.998Z,26.40
2018-08-22T12:33:52.344Z,26.50
2018-08-22T12:36:19.693Z,26.80
2018-08-22T12:38:47.056Z,26.40
2018-08-22T12:41:14.412Z,26.50
2018-08-22T12:43:41.782Z,26.60
2018-08-22T12:46:09.128Z,26.40
2018-08-22T12:48:36.476Z,26.50
2018-08-22T12:51:03.844Z,26.70
2018-08-22T12:53:31.225Z,26.60
2018-08-22T12:55:58.557Z,26.60
2018-08-22T13:00:53.220Z,26.60
2018-08-22T13:03:20.563Z,26.30
2018-08-22T13:05:47.897Z,26.20
2018-08-22T13:08:15.259Z,26.40
2018-08-22T13:10:42.600Z,26.50
2018-08-22T13:13:09.935Z,26.50
2018-08-22T13:15:37.291Z,26.20
2018-08-22T13:18:04.768Z,26.40
2018-08-22T13:20:32.112Z,26.40
2018-08-22T13:22:59.457Z,26.50
2018-08-22T13:25:26.823Z,26.70
2018-08-22T13:27:54.164Z,26.50
2018-08-22T13:30:21.590Z,26.50
2018-08-22T13:32:48.906Z,26.60
2018-08-22T13:35:16.252Z,26.50
2018-08-22T13:37:43.792Z,26.50
2018-08-22T13:40:11.169Z,26.40
2018-08-22T13:42:38.542Z,26.30
2018-08-22T13:45:06.528Z,26.40
2018-08-22T13:47:33.879Z,26.40
2018-08-22T13:50:01.267Z,26.70
2018-08-22T13:52:28.619Z,26.60
2018-08-22T13:54:55.956Z,26.70
2018-08-22T13:57:23.297Z,26.30
2018-08-22T13:59:50.640Z,26.20
2018-08-22T14:02:17.997Z,26.40
2018-08-22T14:04:45.384Z,26.30
2018-08-22T14:09:40.129Z,26.20
2018-08-22T14:12:07.468Z,26.50
2018-08-22T14:14:34.824Z,26.70
2018-08-22T14:17:02.163Z,26.70
2018-08-22T14:19:29.526Z,26.50
2018-08-22T14:21:56.918Z,26.40
2018-08-22T14:24:24.256Z,26.20
2018-08-22T14:26:51.639Z,26.20
2018-08-22T14:29:19.000Z,26.10
2018-08-22T14:31:46.333Z,26.40
2018-08-22T14:34:13.732Z,26.50
2018-08-22T14:36:41.144Z,26.50
2018-08-22T14:39:10.054Z,26.50
2018-08-22T14:41:37.404Z,26.50
2018-08-22T14:44:05.552Z,26.60
2018-08-22T14:46:32.901Z,26.50
2018-08-22T14:51:33.567Z,26.40
2018-08-22T14:54:00.989Z,26.20
2018-08-22T14:56:28.462Z,26.00
2018-08-22T14:58:56.861Z,26.00
2018-08-22T15:01:24.318Z,26.20
2018-08-22T15:03:51.771Z,26.10
2018-08-22T15:06:19.453Z,26.10
2018-08-22T15:08:46.948Z,26.20
2018-08-22T15:11:14.603Z,26.10
2018-08-22T15:13:42.031Z,26.00
2018-08-22T15:16:09.499Z,25.60
2018-08-22T15:18:36.864Z,25.90
2018-08-22T15:21:04.507Z,26.00
2018-08-22T15:23:31.914Z,26.10
2018-08-22T15:25:59.398Z,26.00
2018-08-22T15:28:27.844Z,25.70
2018-08-22T15:30:55.603Z,25.90
2018-08-22T15:33:23.008Z,26.00
2018-08-22T15:35:50.372Z,26.00
2018-08-22T15:38:17.900Z,26.20
2018-08-22T15:40:45.324Z,25.30
2018-08-22T15:43:12.706Z,25.80
2018-08-22T15:45:40.116Z,25.90
2018-08-22T15:48:07.571Z,26.10
2018-08-22T15:50:35.028Z,25.90
2018-08-22T15:53:02.478Z,26.10
2018-08-22T15:55:29.893Z,26.20
2018-08-22T15:58:03.003Z,26.10
2018-08-22T16:00:36.416Z,25.60
2018-08-22T16:03:05.117Z,26.00
2018-08-22T16:05:33.260Z,25.80
2018-08-22T16:08:00.723Z,26.10
2018-08-22T16:10:28.604Z,25.90
2018-08-22T16:12:55.975Z,26.10
2018-08-22T16:15:24.088Z,26.00
2018-08-22T16:17:53.041Z,26.00
2018-08-22T16:20:21.836Z,25.90
2018-08-22T16:22:49.313Z,25.50
2018-08-22T16:25:17.132Z,25.80
2018-08-22T16:27:51.289Z,25.30
2018-08-22T16:30:19.446Z,25.00
2018-08-22T16:32:46.883Z,25.10
2018-08-22T16:35:14.276Z,25.20
2018-08-22T16:37:57.902Z,25.50
2018-08-22T16:40:25.372Z,25.50
2018-08-22T16:42:52.753Z,25.30
2018-08-22T16:45:20.154Z,24.90
2018-08-22T16:47:47.679Z,24.40
2018-08-22T16:50:15.046Z,24.50
2018-08-22T16:52:42.406Z,24.50
2018-08-22T16:55:18.379Z,24.50
2018-08-22T16:57:46.396Z,24.60
2018-08-22T17:00:14.140Z,24.50
2018-08-22T17:02:41.524Z,24.50
2018-08-22T17:05:08.911Z,24.40
2018-08-22T17:07:36.309Z,24.10
2018-08-22T17:10:04.506Z,24.20
2018-08-22T17:12:38.848Z,23.60
2018-08-22T17:15:06.628Z,24.10
2018-08-22T17:17:33.997Z,24.00
2018-08-22T17:20:01.359Z,24.40
2018-08-22T17:22:28.848Z,24.50
2018-08-22T17:24:56.184Z,24.40
2018-08-22T17:27:23.538Z,24.50
2018-08-22T17:29:50.896Z,24.20
2018-08-22T17:32:18.232Z,23.60
2018-08-22T17:34:45.733Z,23.30
2018-08-22T17:37:13.240Z,23.80
2018-08-22T17:39:40.764Z,23.60
2018-08-22T17:42:08.115Z,23.80
2018-08-22T17:44:35.477Z,24.00
2018-08-22T17:47:02.959Z,23.40
2018-08-22T17:49:30.345Z,23.10
2018-08-22T17:52:04.180Z,22.90
2018-08-22T17:54:31.657Z,23.10
2018-08-22T17:57:12.360Z,23.10
2018-08-22T17:59:40.862Z,23.20
2018-08-22T18:02:08.424Z,22.90
2018-08-22T18:04:47.317Z,23.10
2018-08-22T18:07:15.433Z,23.10
2018-08-22T18:09:42.952Z,23.00
2018-08-22T18:12:10.401Z,23.00
2018-08-22T18:14:38.049Z,22.90
2018-08-22T18:17:06.395Z,22.40
2018-08-22T18:19:35.549Z,22.60
2018-08-22T18:22:03.634Z,22.30
2018-08-22T18:24:31.000Z,22.60
2018-08-22T18:26:58.922Z,22.90
2018-08-22T18:29:26.382Z,22.60
2018-08-22T18:31:53.758Z,22.40
2018-08-22T18:34:21.217Z,22.40
2018-08-22T18:36:48.638Z,22.40
2018-08-22T18:39:16.053Z,22.60
2018-08-22T18:41:43.536Z,22.50
2018-08-22T18:44:10.942Z,21.40
2018-08-22T18:46:38.340Z,21.10
2018-08-22T18:49:06.132Z,21.00
2018-08-22T18:51:34.115Z,20.80
2018-08-22T18:54:02.360Z,20.70
2018-08-22T18:56:29.814Z,21.00
2018-08-22T18:58:57.323Z,20.40
2018-08-22T19:01:24.723Z,20.60
2018-08-22T19:03:54.710Z,20.50
2018-08-22T19:06:22.651Z,20.40
2018-08-22T19:08:50.155Z,20.60
2018-08-22T19:11:19.079Z,20.50
2018-08-22T19:13:46.435Z,20.90
2018-08-22T19:16:13.951Z,22.10
2018-08-22T19:18:41.419Z,21.60
2018-08-22T19:21:09.927Z,21.80
2018-08-22T19:23:37.335Z,20.90
2018-08-22T19:26:05.728Z,21.00
2018-08-22T19:28:49.125Z,20.30
2018-08-22T19:31:16.682Z,20.20
2018-08-22T19:33:44.177Z,20.00
2018-08-22T19:36:11.572Z,20.30
2018-08-22T19:38:39.061Z,20.80
2018-08-22T19:41:19.595Z,20.60
2018-08-22T19:43:46.994Z,20.70
2018-08-22T19:46:15.193Z,19.80
2018-08-22T19:48:42.694Z,19.90
2018-08-22T19:51:10.082Z,19.30
2018-08-22T19:53:47.692Z,19.20
2018-08-22T19:56:15.251Z,20.10
2018-08-22T19:58:42.799Z,19.30
2018-08-22T20:01:12.096Z,19.40
2018-08-22T20:03:39.471Z,20.00
2018-08-22T20:06:06.885Z,20.10
2018-08-22T20:08:37.248Z,19.40
2018-08-22T20:11:05.094Z,19.40
2018-08-22T20:13:45.538Z,19.80
2018-08-22T20:16:12.980Z,19.20
2018-08-22T20:18:40.417Z,19.20
2018-08-22T20:21:10.091Z,19.60
2018-08-22T20:23:37.599Z,19.30
2018-08-22T20:26:05.120Z,19.40
2018-08-22T20:28:33.491Z,19.60
2018-08-22T20:31:04.674Z,19.80
2018-08-22T20:33:32.020Z,19.40
2018-08-22T20:35:59.451Z,19.40
2018-08-22T20:38:26.865Z,19.10
2018-08-22T20:40:58.869Z,19.40
2018-08-22T20:43:28.045Z,19.30
2018-08-22T20:45:55.455Z,19.00
2018-08-22T20:48:22.903Z,18.90
2018-08-22T20:50:50.280Z,18.60
2018-08-22T20:53:17.824Z,19.30
2018-08-22T20:55:45.873Z,19.40
2018-08-22T20:58:44.936Z,19.60
2018-08-22T21:01:12.333Z,19.90
2018-08-22T21:03:39.714Z,20.10
2018-08-22T21:06:09.033Z,19.80
2018-08-22T21:08:37.602Z,19.60
2018-08-22T21:11:05.145Z,20.00
2018-08-22T21:13:32.590Z,20.10
2018-08-22T21:15:59.960Z,19.40
2018-08-22T21:18:27.709Z,19.30
2018-08-22T21:20:55.347Z,19.20
2018-08-22T21:23:22.692Z,19.50
2018-08-22T21:25:50.124Z,20.00
2018-08-22T21:28:24.371Z,20.10
2018-08-22T21:30:57.533Z,20.20
2018-08-22T21:33:25.144Z,19.50
2018-08-22T21:35:52.817Z,19.50
2018-08-22T21:38:20.186Z,19.70
2018-08-22T21:40:47.562Z,19.30
2018-08-22T21:43:14.920Z,18.80
2018-08-22T21:45:42.297Z,19.00
2018-08-22T21:48:15.819Z,19.60
2018-08-22T21:50:44.066Z,18.90
2018-08-22T21:53:11.486Z,18.50
2018-08-22T21:55:40.981Z,18.80
2018-08-22T21:58:09.056Z,19.30
2018-08-22T22:00:36.495Z,18.60
2018-08-22T22:03:04.183Z,18.00
2018-08-22T22:05:47.972Z,18.00
2018-08-22T22:08:15.325Z,17.80
2018-08-22T22:10:42.678Z,17.60
2018-08-22T22:13:10.726Z,17.90
2018-08-22T22:15:40.988Z,18.60
2018-08-22T22:18:08.345Z,18.20
2018-08-22T22:20:35.703Z,18.10
2018-08-22T22:23:03.091Z,18.40
2018-08-22T22:25:30.426Z,18.90
2018-08-22T22:27:57.776Z,18.50
2018-08-22T22:30:25.145Z,17.80
2018-08-22T22:32:52.501Z,17.70
2018-08-22T22:35:25.549Z,17.60
2018-08-22T22:37:57.493Z,17.40
2018-08-22T22:40:28.184Z,17.70
2018-08-22T22:42:55.519Z,18.00
2018-08-22T22:45:22.876Z,17.60
2018-08-22T22:47:50.219Z,17.40
2018-08-22T22:50:17.565Z,17.30
2018-08-22T22:52:45.447Z,17.70
2018-08-22T22:55:13.162Z,17.90
2018-08-22T22:57:41.702Z,17.80
2018-08-22T23:00:10.116Z,18.20
2018-08-22T23:02:37.559Z,18.00
2018-08-22T23:05:05.131Z,18.00
2018-08-22T23:07:35.546Z,17.90
2018-08-22T23:10:05.086Z,18.00
2018-08-22T23:12:47.040Z,17.90
2018-08-22T23:15:19.738Z,18.60
2018-08-22T23:17:48.928Z,18.40
2018-08-22T23:20:32.408Z,18.10
2018-08-22T23:22:59.801Z,18.30
2018-08-22T23:25:27.474Z,18.80
2018-08-22T23:27:54.891Z,18.80
2018-08-22T23:30:26.576Z,18.60
2018-08-22T23:32:53.980Z,18.00
2018-08-22T23:35:25.740Z,17.90
2018-08-22T23:37:54.132Z,18.10
2018-08-22T23:40:22.692Z,17.90
2018-08-22T23:42:50.068Z,18.10
2018-08-22T23:45:17.411Z,18.10
2018-08-22T23:47:44.760Z,18.40
2018-08-22T23:50:12.103Z,18.70
2018-08-22T23:52:45.168Z,18.60
2018-08-22T23:55:12.522Z,18.70
2018-08-22T23:57:39.848Z,18.60
